Thunder radar more information blitzortung!


Radar de pluja more information rain snow radar


Visita la nostra xarxa de llocs de meteo:

Template documentation
and downloads

And another site



No particular awareness of the weather is required.    There are no Weather-warnings

Pagina Historial Weather Underground text

Diari Resum May 9, 2016 Unitats:  Mètric    Imperial   Tant
« Previous Dia
SegĂźent Dia »
Diari Setmana Mensual Anual Personalitzada
  Maxima: Minima: Media:
Temperatura: -17.8 °C -10.4 °C -9.1 °C
Punt de rosada: -17.8 °C -11.6 °C -9.8 °C
Humitat: Humidity % 84 % 92 %
Wind Speed: 0 km/h 0 km/h 11.1 km/h
RĂ fegues de vent: 0 km/h - -
Vent:- - ENE
Pression baro: 0 hPa 34063.2 hPa -
Precipitacions: 134.62 mm    
Historical Graphs
 
 
Dades de taula per May 9, 2016
Temps Temperatura Punt de rosada Pression baro Vent Wind Speed RĂ fegues de vent Humitat Rainfall Rate (Hourly)
-17.8 °C -17.8 °C 0 hPa Calm     Humidity % 0 mm
00:03 -9.7 °C -10.7 °C 34164.7 hPa ENE 18.3 km/h 18.3 km/h 89 % 0 mm
00:05 -9.4 °C -10.4 °C 34130.9 hPa ENE 7.7 km/h 15.6 km/h 89 % 0 mm
00:08 -9.7 °C -10.7 °C 34164.7 hPa NNE 11.9 km/h 11.9 km/h 89 % 0 mm
00:15 -9.4 °C -10.4 °C 34130.9 hPa NE 12.9 km/h 15.6 km/h 89 % 0 mm
00:25 -9.4 °C -10.4 °C 34097 hPa NE 15.6 km/h 20.8 km/h 89 % 0 mm
00:45 -9.4 °C -10.4 °C 34097 hPa NE 12.9 km/h 18.2 km/h 89 % 0 mm
00:55 -9.4 °C -10.4 °C 34097 hPa NE 15.6 km/h 28.5 km/h 89 % 0 mm
01:05 -9.4 °C -10.4 °C 34097 hPa NNE 15.6 km/h 15.6 km/h 89 % 0 mm
01:15 -9.3 °C -10.3 °C 34097 hPa NNE 15.6 km/h 15.6 km/h 89 % 0 mm
01:25 -9.3 °C -10.3 °C 34097 hPa NNE 15.6 km/h 15.6 km/h 89 % 0 mm
01:45 -9.4 °C -10.3 °C 34130.9 hPa NNE 15.6 km/h 15.6 km/h 90 % 0 mm
01:55 -9.3 °C -10.2 °C 34097 hPa NNE 15.6 km/h 15.6 km/h 90 % 0 mm
02:05 -9.3 °C -10.2 °C 34097 hPa NNE 15.6 km/h 15.6 km/h 90 % 0 mm
02:15 -9.2 °C -10.2 °C 34097 hPa NNE 7.7 km/h 15.6 km/h 89 % 0 mm
02:25 -9.2 °C -10.2 °C 34130.9 hPa NE 7.7 km/h 7.7 km/h 89 % 0 mm
02:35 -9.2 °C -10.2 °C 34130.9 hPa ENE 12.9 km/h 15.6 km/h 89 % 0 mm
02:45 -9.2 °C -10.2 °C 34097 hPa NE 7.7 km/h 12.9 km/h 89 % 0 mm
02:55 -9.3 °C -10.4 °C 34130.9 hPa NNE 12.9 km/h 15.6 km/h 88 % 0 mm
03:05 -9.4 °C -10.5 °C 34130.9 hPa NE 7.7 km/h 7.7 km/h 88 % 0 mm
03:15 -9.5 °C -10.5 °C 34130.9 hPa NE 2.6 km/h 5.1 km/h 89 % 0 mm
03:25 -9.6 °C -10.6 °C 34097 hPa NE 5.1 km/h 5.1 km/h 89 % 0 mm
03:35 -9.6 °C -10.4 °C 34097 hPa NE 5.1 km/h 5.1 km/h 91 % 0 mm
03:45 -9.6 °C -10.4 °C 34130.9 hPa NE 5.1 km/h 7.7 km/h 91 % 0 mm
03:55 -9.5 °C -10.2 °C 34097 hPa ENE 7.7 km/h 7.7 km/h 92 % 0 mm
04:05 -9.5 °C -10.1 °C 34097 hPa ENE 5.1 km/h 10.3 km/h 93 % 0 mm
04:15 -9.4 °C -10.1 °C 34097 hPa NE 7.7 km/h 10.3 km/h 93 % 0 mm
04:25 -9.4 °C -9.9 °C 34097 hPa NE 7.7 km/h 10.3 km/h 94 % 0 mm
04:55 -9.4 °C -9.9 °C 34130.9 hPa NE 5.1 km/h 12.9 km/h 94 % 0 mm
05:05 -9.4 °C -9.9 °C 34130.9 hPa NE 7.7 km/h 15.6 km/h 94 % 0 mm
05:15 -9.4 °C -9.9 °C 34130.9 hPa NNE 7.7 km/h 15.6 km/h 95 % 0 mm
05:25 -9.4 °C -9.9 °C 34097 hPa NNE 7.7 km/h 15.6 km/h 95 % 0 mm
05:35 -9.4 °C -9.8 °C 34097 hPa NNE 7.7 km/h 15.6 km/h 95 % 0 mm
05:45 -9.4 °C -9.8 °C 34130.9 hPa NNE 7.7 km/h 15.6 km/h 95 % 0 mm
10:55 -9.4 °C -9.8 °C 34130.9 hPa NNE 15 km/h 15 km/h 95 % 0 mm
11:00 -9.4 °C -9.8 °C 34130.9 hPa NNE 15 km/h 15 km/h 95 % 0 mm
11:10 -9.4 °C -9.8 °C 34097 hPa NNE 15 km/h 15 km/h 95 % 0 mm
11:15 -9.4 °C -9.8 °C 34097 hPa NNE 15 km/h 15 km/h 95 % 0 mm
11:25 -9.4 °C -9.8 °C 34097 hPa NNE 15 km/h 15 km/h 95 % 0 mm
11:30 -9.4 °C -9.8 °C 34097 hPa ENE 15 km/h 15 km/h 95 % 0 mm
11:35 -9.3 °C -9.8 °C 34097 hPa NNE 15.6 km/h 15.6 km/h 95 % 0 mm
11:40 -9.3 °C -9.8 °C 34130.9 hPa ENE 6.8 km/h 8.5 km/h 95 % 0 mm
11:45 -9.3 °C -9.8 °C 34130.9 hPa ENE 6.8 km/h 6.8 km/h 95 % 0 mm
11:50 -9.3 °C -9.8 °C 34130.9 hPa North 9.8 km/h 9.8 km/h 95 % 0 mm
11:55 -9.3 °C -9.9 °C 34164.7 hPa NW 9 km/h 9 km/h 94 % 0 mm
12:00 -9.4 °C -9.9 °C 34164.7 hPa NNW 6 km/h 6 km/h 94 % 0 mm
12:05 -9.4 °C -9.9 °C 34164.7 hPa Calm     94 % 0 mm
12:10 -9.4 °C -9.9 °C 34097 hPa West 4.2 km/h 4.2 km/h 94 % 0 mm
12:15 -9.4 °C -9.9 °C 34097 hPa WSW 3.7 km/h 3.7 km/h 94 % 0 mm
12:20 -9.4 °C -9.9 °C 34097 hPa Calm     94 % 0 mm
12:25 -9.4 °C -9.9 °C 34130.9 hPa Calm     94 % 0 mm
12:30 -9.4 °C -9.9 °C 34130.9 hPa NE 9 km/h 9 km/h 94 % 0 mm
12:35 -9.4 °C -9.9 °C 34130.9 hPa NNE 9.8 km/h 9.8 km/h 94 % 0 mm
12:40 -9.3 °C -9.9 °C 34130.9 hPa NNE 11.9 km/h 11.9 km/h 94 % 0 mm
12:45 -9.3 °C -9.9 °C 34130.9 hPa NNE 15 km/h 15 km/h 94 % 0 mm
12:50 -9.3 °C -9.8 °C 34130.9 hPa ENE 11.9 km/h 11.9 km/h 94 % 0 mm
12:55 -9.3 °C -9.9 °C 34130.9 hPa NNE 15 km/h 15 km/h 94 % 0 mm
13:00 -9.3 °C -9.9 °C 34130.9 hPa NE 11.1 km/h 11.1 km/h 94 % 0 mm
13:05 -9.3 °C -9.9 °C 34130.9 hPa NNE 9 km/h 9 km/h 94 % 0 mm
13:10 -9.3 °C -9.9 °C 34130.9 hPa NNE 9 km/h 9 km/h 94 % 0 mm
13:15 -9.3 °C -9.9 °C 34130.9 hPa NNE 11.9 km/h 11.9 km/h 94 % 0 mm
13:20 -9.3 °C -9.9 °C 34130.9 hPa NNE 17.9 km/h 17.9 km/h 94 % 0 mm
13:25 -9.3 °C -9.9 °C 34130.9 hPa NE 16.1 km/h 16.1 km/h 94 % 0 mm
13:30 -9.3 °C -9.9 °C 34130.9 hPa ENE 15 km/h 15 km/h 94 % 0 mm
13:40 -9.3 °C -9.9 °C 34130.9 hPa ENE 15 km/h 15 km/h 94 % 33.02 mm
13:45 -9.3 °C -9.9 °C 34130.9 hPa ENE 15 km/h 15 km/h 94 % 33.02 mm
13:50 -9.3 °C -9.9 °C 34130.9 hPa NE 15 km/h 15 km/h 94 % 33.02 mm
14:00 -9.2 °C -9.6 °C 34097 hPa NNE 15 km/h 15 km/h 95 % 33.02 mm
14:05 -9.2 °C -9.6 °C 34097 hPa ENE 15 km/h 15 km/h 95 % 33.02 mm
14:10 -9.1 °C -9.6 °C 34130.9 hPa NNE 15 km/h 15 km/h 95 % 33.02 mm
14:15 -9.1 °C -9.5 °C 34130.9 hPa NNE 16.1 km/h 16.1 km/h 95 % 33.02 mm
14:20 -9.1 °C -9.5 °C 34130.9 hPa NNE 11.1 km/h 11.1 km/h 95 % 33.02 mm
14:25 -9.1 °C -9.5 °C 34130.9 hPa ESE 11.9 km/h 11.9 km/h 95 % 33.02 mm
14:30 -9 °C -9.4 °C 34130.9 hPa NNE 11.9 km/h 11.9 km/h 95 % 33.02 mm
14:35 -9 °C -9.4 °C 34130.9 hPa NE 9.3 km/h 10.3 km/h 95 % 0 mm
14:40 -9 °C -9.4 °C 34130.9 hPa ENE 6.8 km/h 6.8 km/h 95 % 0 mm
14:45 -9 °C -9.4 °C 34130.9 hPa East 6 km/h 6 km/h 95 % 0 mm
14:50 -8.9 °C -9.5 °C 34130.9 hPa ENE 6 km/h 6 km/h 94 % 0 mm
14:55 -8.9 °C -9.5 °C 34130.9 hPa ENE 6 km/h 6 km/h 94 % 0 mm
15:00 -8.9 °C -9.5 °C 34130.9 hPa ENE 6 km/h 6 km/h 94 % 0 mm
15:05 -8.9 °C -9.5 °C 34130.9 hPa NE 6.8 km/h 6.8 km/h 94 % 0 mm
15:15 -8.9 °C -9.4 °C 34130.9 hPa ENE 5.1 km/h 5.1 km/h 94 % 0 mm
15:20 -8.9 °C -9.4 °C 34130.9 hPa ESE 9.3 km/h 9.3 km/h 94 % 0 mm
15:25 -8.9 °C -9.4 °C 34097 hPa ESE 9 km/h 9 km/h 94 % 0 mm
15:35 -8.8 °C -9.4 °C 34097 hPa South 3.1 km/h   94 % 0 mm
15:40 -8.8 °C -9.4 °C 34130.9 hPa SW 3.1 km/h 3.7 km/h 94 % 0 mm
15:45 -8.8 °C -9.3 °C 34130.9 hPa South 6 km/h 6 km/h 95 % 0 mm
15:50 -8.9 °C -9.3 °C 34130.9 hPa East 6.3 km/h 6.3 km/h 95 % 0 mm
15:55 -8.9 °C -9.4 °C 34130.9 hPa East 15 km/h 15 km/h 95 % 25.4 mm
16:00 -8.9 °C -9.4 °C 34130.9 hPa NNE 9 km/h 9 km/h 95 % 25.4 mm
16:05 -9 °C -9.4 °C 34130.9 hPa NNE 9 km/h 9 km/h 95 % 25.4 mm
16:10 -8.9 °C -9.4 °C 34130.9 hPa ENE 15 km/h 15 km/h 95 % 25.4 mm
16:15 -8.9 °C -9.3 °C 34130.9 hPa NNE 9 km/h 9 km/h 95 % 25.4 mm
16:20 -8.8 °C -9.3 °C 34130.9 hPa NE 11.1 km/h 11.1 km/h 95 % 25.4 mm
16:25 -8.8 °C -9.3 °C 34097 hPa East 15 km/h 15 km/h 95 % 25.4 mm
16:30 -8.8 °C -9.3 °C 34097 hPa ESE 16.6 km/h 16.6 km/h 95 % 25.4 mm
16:35 -8.8 °C -9.3 °C 34097 hPa East 15 km/h 15 km/h 95 % 25.4 mm
16:40 -8.8 °C -9.2 °C 34097 hPa NE 11.9 km/h 11.9 km/h 95 % 25.4 mm
16:45 -8.7 °C -9.2 °C 34097 hPa NE 11.9 km/h 11.9 km/h 95 % 25.4 mm
16:50 -8.7 °C -9.2 °C 34097 hPa NNE 15 km/h 15 km/h 95 % 25.4 mm
16:55 -8.6 °C -9.1 °C 34063.2 hPa ESE 15 km/h 15 km/h 95 % 0 mm
17:00 -8.5 °C -8.9 °C 34063.2 hPa East 15 km/h 15 km/h 95 % 0 mm
17:05 -8.5 °C -9.1 °C 34063.2 hPa ENE 15 km/h 15 km/h 94 % 0 mm
17:10 -8.4 °C -9 °C 34097 hPa ESE 11.9 km/h 11.9 km/h 94 % 0 mm
17:15 -8.3 °C -9 °C 34097 hPa NNE 20.9 km/h 20.9 km/h 93 % 0 mm
17:20 -8.2 °C -8.9 °C 34097 hPa NE 17.9 km/h 17.9 km/h 92 % 0 mm
17:25 -8.1 °C -8.8 °C 34097 hPa ENE 15 km/h 15 km/h 92 % 0 mm
17:30 -8.1 °C -8.9 °C 34097 hPa ESE 20.9 km/h 20.9 km/h 91 % 0 mm
17:40 -8 °C -8.9 °C 34097 hPa NE 25.9 km/h 25.9 km/h 90 % 0 mm
17:45 -8 °C -8.9 °C 34097 hPa ENE 11.9 km/h 11.9 km/h 90 % 0 mm
17:50 -8 °C -8.9 °C 34097 hPa SE 26.4 km/h 26.4 km/h 90 % 0 mm
17:55 -8 °C -8.9 °C 34130.9 hPa NE 32.8 km/h 32.8 km/h 90 % 0 mm
18:00 -8 °C -8.9 °C 34130.9 hPa ENE 26.9 km/h 26.9 km/h 90 % 0 mm
18:05 -8.2 °C -9.1 °C 34130.9 hPa East 17.9 km/h 17.9 km/h 90 % 0 mm
18:10 -8.3 °C -9.2 °C 34130.9 hPa ENE 15 km/h 15.3 km/h 90 % 0 mm
18:15 -8.3 °C -9.2 °C 34130.9 hPa ENE 20.9 km/h 20.9 km/h 90 % 0 mm
18:20 -8.4 °C -9.3 °C 34130.9 hPa ESE 15 km/h 15 km/h 90 % 0 mm
18:25 -8.4 °C -9.3 °C 34130.9 hPa NNE 17.9 km/h 17.9 km/h 90 % 0 mm
18:30 -8.4 °C -9.3 °C 34130.9 hPa ENE 17.9 km/h 17.9 km/h 90 % 0 mm
18:35 -8.4 °C -9.3 °C 34130.9 hPa ENE 17.9 km/h 17.9 km/h 90 % 0 mm
18:40 -8.5 °C -9.3 °C 34130.9 hPa ENE 11.9 km/h 11.9 km/h 91 % 0 mm
18:45 -8.5 °C -9.3 °C 34130.9 hPa ENE 20.9 km/h 20.9 km/h 91 % 0 mm
18:50 -8.5 °C -9.3 °C 34130.9 hPa East 15 km/h 15 km/h 91 % 0 mm
18:55 -8.5 °C -9.3 °C 34130.9 hPa NNE 15 km/h 15 km/h 91 % 0 mm
19:00 -8.5 °C -9.3 °C 34130.9 hPa ENE 16.6 km/h 16.6 km/h 91 % 0 mm
19:05 -8.5 °C -9.3 °C 34130.9 hPa NE 6 km/h 6 km/h 91 % 0 mm
19:10 -8.5 °C -9.3 °C 34130.9 hPa Calm     91 % 0 mm
19:15 -8.5 °C -9.3 °C 34130.9 hPa SE 6.8 km/h   91 % 0 mm
19:20 -8.5 °C -9.3 °C 34130.9 hPa ESE 6.8 km/h 6.8 km/h 91 % 0 mm
19:25 -8.5 °C -9.3 °C 34130.9 hPa East 6 km/h 6 km/h 91 % 0 mm
19:30 -8.5 °C -9.3 °C 34130.9 hPa East 4.2 km/h 4.2 km/h 91 % 0 mm
19:35 -8.5 °C -9.3 °C 34130.9 hPa ENE 6 km/h 6 km/h 91 % 0 mm
19:40 -8.5 °C -9.3 °C 34130.9 hPa NE 6.8 km/h 6.8 km/h 91 % 0 mm
19:45 -8.5 °C -9.3 °C 34130.9 hPa NNE 6 km/h 6 km/h 91 % 0 mm
19:50 -8.6 °C -9.4 °C 34130.9 hPa ENE 6 km/h 6.3 km/h 91 % 0 mm
19:55 -8.6 °C -9.4 °C 34130.9 hPa ESE 15 km/h 15 km/h 91 % 0 mm
20:00 -8.6 °C -9.4 °C 34130.9 hPa NE 11.9 km/h 11.9 km/h 91 % 0 mm
20:05 -8.7 °C -9.5 °C 34130.9 hPa ENE 22 km/h 22 km/h 91 % 0 mm
20:10 -8.7 °C -9.5 °C 34130.9 hPa NE 11.9 km/h 11.9 km/h 91 % 0 mm
20:15 -8.7 °C -9.5 °C 34130.9 hPa SE 9.3 km/h 9.3 km/h 91 % 0 mm
20:20 -8.7 °C -9.5 °C 34130.9 hPa ENE 17.9 km/h 17.9 km/h 91 % 0 mm
20:25 -8.7 °C -9.5 °C 34164.7 hPa East 9 km/h 9 km/h 91 % 0 mm
20:30 -8.7 °C -9.5 °C 34164.7 hPa East 9 km/h 9 km/h 91 % 0 mm
20:35 -8.7 °C -9.5 °C 34164.7 hPa ENE 5.1 km/h 5.1 km/h 91 % 0 mm
20:40 -8.8 °C -9.7 °C 34164.7 hPa NE 9 km/h 9 km/h 90 % 0 mm
20:45 -8.8 °C -9.7 °C 34164.7 hPa NNE 6.3 km/h 6.3 km/h 90 % 0 mm
20:50 -8.8 °C -9.7 °C 34164.7 hPa ENE 6 km/h 6.8 km/h 90 % 0 mm
20:55 -8.8 °C -9.7 °C 34130.9 hPa ENE 6 km/h 6 km/h 90 % 0 mm
21:00 -8.8 °C -9.7 °C 34130.9 hPa ENE 6.8 km/h 6.8 km/h 90 % 0 mm
21:05 -8.8 °C -9.7 °C 34130.9 hPa NNE 9 km/h 9 km/h 90 % 0 mm
21:10 -8.8 °C -9.7 °C 34130.9 hPa ENE 17.9 km/h 17.9 km/h 90 % 0 mm
21:15 -8.8 °C -9.7 °C 34130.9 hPa SE 7.6 km/h 7.6 km/h 90 % 0 mm
21:20 -8.8 °C -9.7 °C 34130.9 hPa ESE 9 km/h 9 km/h 91 % 0 mm
21:25 -8.8 °C -9.7 °C 34198.6 hPa ENE 15.3 km/h 15.3 km/h 91 % 0 mm
21:30 -8.8 °C -9.7 °C 34198.6 hPa ESE 11.9 km/h 11.9 km/h 91 % 0 mm
21:35 -8.9 °C -9.7 °C 34198.6 hPa East 15 km/h 15 km/h 91 % 0 mm
21:40 -8.9 °C -9.7 °C 34198.6 hPa NNE 15 km/h 15 km/h 91 % 0 mm
21:45 -8.8 °C -9.7 °C 34198.6 hPa ESE 19.2 km/h 19.2 km/h 91 % 0 mm
21:50 -8.9 °C -9.7 °C 34198.6 hPa ENE 15 km/h 15 km/h 91 % 0 mm
21:55 -8.9 °C -9.6 °C 34222.3 hPa ESE 12.7 km/h 12.7 km/h 92 % 0 mm
22:00 -8.9 °C -9.6 °C 34222.3 hPa ENE 9 km/h 9 km/h 92 % 0 mm
22:10 -8.9 °C -9.6 °C 34198.6 hPa ESE 15.3 km/h 15.3 km/h 92 % 0 mm
22:15 -8.9 °C -9.7 °C 34198.6 hPa ESE 9.8 km/h 9.8 km/h 92 % 0 mm
22:20 -8.9 °C -9.7 °C 34198.6 hPa NW 6 km/h   92 % 0 mm
22:25 -8.9 °C -9.7 °C 34198.6 hPa SW 6 km/h 6 km/h 92 % 0 mm
22:30 -8.9 °C -9.6 °C 34198.6 hPa SW 6.3 km/h 6.3 km/h 93 % 0 mm
22:35 -9 °C -9.6 °C 34198.6 hPa Calm     93 % 0 mm
22:40 -9 °C -9.6 °C 34222.3 hPa ENE 6 km/h 6 km/h 93 % 0 mm
22:45 -9 °C -9.6 °C 34222.3 hPa ENE 9 km/h 9 km/h 93 % 0 mm
22:50 -9 °C -9.6 °C 34222.3 hPa East 9.3 km/h 9.3 km/h 93 % 0 mm
22:55 -9 °C -9.6 °C 34198.6 hPa NE 3.1 km/h 3.1 km/h 93 % 0 mm
23:00 -9 °C -9.6 °C 34198.6 hPa WNW 3.7 km/h   94 % 0 mm
23:05 -8.9 °C -9.6 °C 34198.6 hPa WNW 6.8 km/h 6.8 km/h 93 % 0 mm
23:10 -9 °C -9.6 °C 34222.3 hPa West 14 km/h 14 km/h 93 % 0 mm
23:15 -9.2 °C -9.9 °C 34222.3 hPa WSW 9 km/h 9 km/h 92 % 0 mm
23:20 -9.4 °C -10.4 °C 34222.3 hPa WNW 17.9 km/h 17.9 km/h 89 % 0 mm
23:25 -9.5 °C -10.7 °C 34222.3 hPa WNW 15 km/h 15 km/h 87 % 0 mm
23:30 -9.7 °C -11.1 °C 34222.3 hPa WNW 14 km/h 14 km/h 85 % 0 mm
23:35 -10.1 °C -11.6 °C 34222.3 hPa NNE 6.3 km/h 6.3 km/h 84 % 25.4 mm
23:40 -10.2 °C -11.6 °C 34256.2 hPa NNE 6.3 km/h 6.3 km/h 85 % 50.8 mm
23:45 -10.3 °C -11.4 °C 34256.2 hPa NNE 3.1 km/h   87 % 76.2 mm
23:50 -10.3 °C -11.5 °C 34256.2 hPa NE 6 km/h 6 km/h 87 % 76.2 mm
23:55 -10.4 °C -11.5 °C 34256.2 hPa NNE 3.1 km/h 3.1 km/h 88 % 76.2 mm
Meteo Sesrovires
Elogis d' Weather Underground - 3.5 mb

Guio original per  Jim McMurry - jmcmurry@mwt.net Adaptat per a la plantilla per  Wim van der Kuil - Leuven-Template.eu

Trobareu la nostra informacio del temps tambe a:

Weather Underground

AWEKAS